createdAt,value
2023-03-13T00:01:25.571Z,9.10
2023-03-13T00:03:55.947Z,9.00
2023-03-13T00:06:25.825Z,9.00
2023-03-13T00:08:55.680Z,9.10
2023-03-13T00:11:24.235Z,9.00
2023-03-13T00:13:55.880Z,9.20
2023-03-13T00:16:25.437Z,9.10
2023-03-13T00:18:55.413Z,9.10
2023-03-13T00:21:26.268Z,9.20
2023-03-13T00:23:56.657Z,9.20
2023-03-13T00:26:27.810Z,9.20
2023-03-13T00:28:56.806Z,9.20
2023-03-13T00:31:27.550Z,9.20
2023-03-13T00:33:58.904Z,9.20
2023-03-13T00:36:28.999Z,9.20
2023-03-13T00:38:59.477Z,9.20
2023-03-13T00:41:30.909Z,9.20
2023-03-13T00:44:00.231Z,9.20
2023-03-13T00:46:30.022Z,9.20
2023-03-13T00:48:58.999Z,9.20
2023-03-13T00:51:28.608Z,9.20
2023-03-13T00:54:00.955Z,9.20
2023-03-13T00:56:30.161Z,9.20
2023-03-13T00:59:00.422Z,9.20
2023-03-13T01:01:31.469Z,9.10
2023-03-13T01:04:02.029Z,9.20
2023-03-13T01:06:34.296Z,9.20
2023-03-13T01:09:05.178Z,9.10
2023-03-13T01:11:36.430Z,9.20
2023-03-13T01:14:08.400Z,9.20
2023-03-13T01:16:38.047Z,9.20
2023-03-13T01:19:09.160Z,9.20
2023-03-13T01:21:38.954Z,9.20
2023-03-13T01:24:09.596Z,9.20
2023-03-13T01:26:38.378Z,9.20
2023-03-13T01:29:06.921Z,9.30
2023-03-13T01:31:37.437Z,9.30
2023-03-13T01:34:09.676Z,9.30
2023-03-13T01:36:38.920Z,9.30
2023-03-13T01:39:08.917Z,9.40
2023-03-13T01:41:39.058Z,9.40
2023-03-13T01:44:07.928Z,9.40
2023-03-13T01:46:39.895Z,9.50
2023-03-13T01:49:28.513Z,9.50
2023-03-13T01:52:24.829Z,9.60
2023-03-13T01:55:04.483Z,9.60
2023-03-13T01:57:36.253Z,9.70
2023-03-13T02:00:10.654Z,9.70
2023-03-13T02:02:45.263Z,9.70
2023-03-13T02:05:16.226Z,9.80
2023-03-13T02:07:48.169Z,9.70
2023-03-13T02:10:19.270Z,9.80
2023-03-13T02:12:49.246Z,9.80
2023-03-13T02:15:20.600Z,9.80
2023-03-13T02:17:51.265Z,9.90
2023-03-13T02:20:22.173Z,9.90
2023-03-13T02:23:01.391Z,9.90
2023-03-13T02:25:38.634Z,9.90
2023-03-13T02:28:12.022Z,9.90
2023-03-13T02:30:44.414Z,10.00
2023-03-13T02:33:14.382Z,10.00
2023-03-13T02:35:44.066Z,10.10
2023-03-13T02:38:19.140Z,10.10
2023-03-13T02:40:50.458Z,10.10
2023-03-13T02:43:25.460Z,10.10
2023-03-13T02:46:06.254Z,10.20
2023-03-13T02:48:39.447Z,10.20
2023-03-13T02:51:13.666Z,10.20
2023-03-13T02:53:44.295Z,10.30
2023-03-13T02:56:18.206Z,10.30
2023-03-13T02:58:50.358Z,10.30
2023-03-13T03:01:22.340Z,10.40
2023-03-13T03:03:51.231Z,10.40
2023-03-13T03:06:19.977Z,10.50
2023-03-13T03:08:49.258Z,10.60
2023-03-13T03:11:19.464Z,10.60
2023-03-13T03:13:52.905Z,10.70
2023-03-13T03:16:21.545Z,10.70
2023-03-13T03:18:50.046Z,10.90
2023-03-13T03:21:19.183Z,10.90
2023-03-13T03:23:47.834Z,10.80
2023-03-13T03:26:17.138Z,11.00
2023-03-13T03:28:47.090Z,11.00
2023-03-13T03:31:17.613Z,11.00
2023-03-13T03:33:47.086Z,11.10
2023-03-13T03:36:19.334Z,11.20
2023-03-13T03:38:49.249Z,11.20
2023-03-13T03:41:20.886Z,11.20
2023-03-13T03:43:50.810Z,11.30
2023-03-13T03:46:24.674Z,11.40
2023-03-13T03:48:53.328Z,11.30
2023-03-13T03:51:22.877Z,11.40
2023-03-13T03:53:51.661Z,11.40
2023-03-13T03:56:20.186Z,11.50
2023-03-13T03:58:55.243Z,11.50
2023-03-13T04:01:56.421Z,11.50
2023-03-13T04:04:27.690Z,11.50
2023-03-13T04:07:03.598Z,11.60
2023-03-13T04:09:33.515Z,11.60
2023-03-13T04:12:04.317Z,11.60
2023-03-13T04:14:38.825Z,11.60
2023-03-13T04:17:10.361Z,11.70
2023-03-13T04:19:39.569Z,11.70
2023-03-13T04:22:09.010Z,11.70
2023-03-13T04:24:39.153Z,11.80
2023-03-13T04:27:07.765Z,11.80
2023-03-13T04:29:38.796Z,11.90
2023-03-13T04:32:26.067Z,11.80
2023-03-13T04:35:04.940Z,11.90
2023-03-13T04:38:01.100Z,11.90
2023-03-13T04:41:05.181Z,11.90
2023-03-13T04:43:53.882Z,11.90
2023-03-13T04:46:40.269Z,11.90
2023-03-13T04:49:27.237Z,11.90
2023-03-13T04:52:08.204Z,12.00
2023-03-13T04:54:57.053Z,12.00
2023-03-13T04:57:44.142Z,12.00
2023-03-13T05:00:50.889Z,12.00
2023-03-13T05:03:35.308Z,12.00
2023-03-13T05:06:35.599Z,12.00
2023-03-13T05:09:21.359Z,12.10
2023-03-13T05:12:19.049Z,12.10
2023-03-13T05:14:56.465Z,12.20
2023-03-13T05:17:35.784Z,12.10
2023-03-13T05:20:29.865Z,12.20
2023-03-13T05:23:08.865Z,12.20
2023-03-13T05:25:55.930Z,12.20
2023-03-13T05:28:44.653Z,12.20
2023-03-13T05:31:39.360Z,12.20
2023-03-13T05:34:26.639Z,12.20
2023-03-13T05:37:16.664Z,12.30
2023-03-13T05:40:09.290Z,12.30
2023-03-13T05:42:40.611Z,12.30
2023-03-13T05:45:20.895Z,12.30
2023-03-13T05:47:49.446Z,12.40
2023-03-13T05:50:36.658Z,12.40
2023-03-13T05:53:25.092Z,12.40
2023-03-13T05:56:05.283Z,12.40
2023-03-13T05:58:56.787Z,12.40
2023-03-13T06:02:00.853Z,12.40
2023-03-13T06:04:35.641Z,12.40
2023-03-13T06:07:04.346Z,12.50
2023-03-13T06:09:34.378Z,12.60
2023-03-13T06:12:02.934Z,12.50
2023-03-13T06:14:32.157Z,12.50
2023-03-13T06:17:13.856Z,12.70
2023-03-13T06:19:42.358Z,12.50
2023-03-13T06:22:10.864Z,12.60
2023-03-13T06:24:41.225Z,12.60
2023-03-13T06:27:10.075Z,12.60
2023-03-13T06:29:38.533Z,12.60
2023-03-13T06:32:07.761Z,12.80
2023-03-13T06:34:36.587Z,12.70
2023-03-13T06:37:05.272Z,12.70
2023-03-13T06:39:34.075Z,12.80
2023-03-13T06:42:03.976Z,12.70
2023-03-13T06:44:32.511Z,12.80
2023-03-13T06:47:00.999Z,12.80
2023-03-13T06:49:29.529Z,12.80
2023-03-13T06:51:59.607Z,12.90
2023-03-13T06:54:28.746Z,12.90
2023-03-13T06:56:57.224Z,12.90
2023-03-13T06:59:27.198Z,12.90
2023-03-13T07:01:55.674Z,12.90
2023-03-13T07:04:24.104Z,13.00
2023-03-13T07:06:52.993Z,13.00
2023-03-13T07:09:21.483Z,13.00
2023-03-13T07:11:49.962Z,13.10
2023-03-13T07:14:18.533Z,13.10
2023-03-13T07:16:48.574Z,13.10
2023-03-13T07:19:17.706Z,13.10
2023-03-13T07:21:46.812Z,13.10
2023-03-13T07:24:15.297Z,13.10
2023-03-13T07:26:57.922Z,12.90
2023-03-13T07:29:32.327Z,13.00
2023-03-13T07:32:02.331Z,12.90
2023-03-13T07:34:30.978Z,12.90
2023-03-13T07:36:59.630Z,12.90
2023-03-13T07:39:28.116Z,12.90
2023-03-13T07:41:56.621Z,12.80
2023-03-13T07:44:25.144Z,12.80
2023-03-13T07:46:53.659Z,12.80
2023-03-13T07:49:23.592Z,12.70
2023-03-13T07:51:52.181Z,12.60
2023-03-13T07:54:20.677Z,12.70
2023-03-13T07:56:49.301Z,12.50
2023-03-13T07:59:17.897Z,12.50
2023-03-13T08:01:46.395Z,12.50
2023-03-13T08:04:15.475Z,12.40
2023-03-13T08:06:45.364Z,12.50
2023-03-13T08:09:13.868Z,12.40
2023-03-13T08:11:44.394Z,12.40
2023-03-13T08:14:13.086Z,12.40
2023-03-13T08:16:41.655Z,12.50
2023-03-13T08:19:11.344Z,12.50
2023-03-13T08:21:39.857Z,12.40
2023-03-13T08:24:12.901Z,12.40
2023-03-13T08:26:43.264Z,12.40
2023-03-13T08:29:13.558Z,12.40
2023-03-13T08:31:45.222Z,12.50
2023-03-13T08:34:14.146Z,12.50
2023-03-13T08:36:43.090Z,12.50
2023-03-13T08:39:15.191Z,12.50
2023-03-13T08:41:44.077Z,12.50
2023-03-13T08:44:14.491Z,12.40
2023-03-13T08:46:43.868Z,12.40
2023-03-13T08:49:13.443Z,12.40
2023-03-13T08:51:42.057Z,12.40
2023-03-13T08:54:12.025Z,12.50
2023-03-13T08:56:41.247Z,12.50
2023-03-13T08:59:09.846Z,12.60
2023-03-13T09:01:38.650Z,12.60
2023-03-13T09:04:07.840Z,12.70
2023-03-13T09:06:38.375Z,12.90
2023-03-13T09:09:08.424Z,12.80
2023-03-13T09:11:40.377Z,12.80
2023-03-13T09:14:10.891Z,13.00
2023-03-13T09:16:39.584Z,12.90
2023-03-13T09:19:08.175Z,12.90
2023-03-13T09:21:37.255Z,13.00
2023-03-13T09:24:06.026Z,13.10
2023-03-13T09:26:34.551Z,13.30
2023-03-13T09:29:04.485Z,13.50
2023-03-13T09:31:34.543Z,13.80
2023-03-13T09:34:03.245Z,14.00
2023-03-13T09:36:31.822Z,14.20
2023-03-13T09:39:01.131Z,14.40
2023-03-13T09:41:37.389Z,14.50
2023-03-13T09:44:15.876Z,14.60
2023-03-13T09:46:50.517Z,14.60
2023-03-13T09:49:30.803Z,14.60
2023-03-13T09:52:15.037Z,14.60
2023-03-13T09:54:47.954Z,14.60
2023-03-13T09:57:24.422Z,14.70
2023-03-13T09:59:58.860Z,14.90
2023-03-13T10:02:32.201Z,14.90
2023-03-13T10:05:13.704Z,14.90
2023-03-13T10:07:42.266Z,15.10
2023-03-13T10:10:17.965Z,15.20
2023-03-13T10:12:48.923Z,15.30
2023-03-13T10:15:37.995Z,15.60
2023-03-13T10:18:18.303Z,15.80
2023-03-13T10:20:49.695Z,16.00
2023-03-13T10:23:22.996Z,16.20
2023-03-13T10:25:51.553Z,16.40
2023-03-13T10:28:22.495Z,16.50
2023-03-13T10:30:55.636Z,16.70
2023-03-13T10:33:26.313Z,16.70
2023-03-13T10:36:07.250Z,16.50
2023-03-13T10:38:46.875Z,16.40
2023-03-13T10:41:27.569Z,16.30
2023-03-13T10:44:00.347Z,16.40
2023-03-13T10:46:32.985Z,16.40
2023-03-13T10:49:04.147Z,16.30
2023-03-13T10:51:38.710Z,16.20
2023-03-13T10:54:16.417Z,16.10
2023-03-13T10:56:44.981Z,16.10
2023-03-13T10:59:23.715Z,16.20
2023-03-13T11:01:54.941Z,16.20
2023-03-13T11:04:32.618Z,16.30
2023-03-13T11:07:04.675Z,16.50
2023-03-13T11:09:33.790Z,16.60
2023-03-13T11:12:08.322Z,16.80
2023-03-13T11:14:37.041Z,17.00
2023-03-13T11:17:25.734Z,17.20
2023-03-13T11:20:01.853Z,17.40
2023-03-13T11:22:41.706Z,17.60
2023-03-13T11:25:22.923Z,17.70
2023-03-13T11:28:00.911Z,17.70
2023-03-13T11:30:51.916Z,17.70
2023-03-13T11:33:34.859Z,17.70
2023-03-13T11:36:10.515Z,17.90
2023-03-13T11:38:42.249Z,18.00
2023-03-13T11:41:25.746Z,18.10
2023-03-13T11:44:16.366Z,18.20
2023-03-13T11:46:55.978Z,18.10
2023-03-13T11:49:54.352Z,18.00
2023-03-13T11:52:48.629Z,17.90
2023-03-13T11:55:33.948Z,17.90
2023-03-13T11:58:27.303Z,18.00
2023-03-13T12:01:00.821Z,18.00
2023-03-13T12:03:37.901Z,18.00
2023-03-13T12:06:27.542Z,17.80
2023-03-13T12:09:04.274Z,17.70
2023-03-13T12:11:37.988Z,17.50
2023-03-13T12:14:14.353Z,17.50
2023-03-13T12:16:45.821Z,17.40
2023-03-13T12:19:19.043Z,17.40
2023-03-13T12:21:53.762Z,17.40
2023-03-13T12:24:28.643Z,17.50
2023-03-13T12:27:02.532Z,17.60
2023-03-13T12:29:44.166Z,17.70
2023-03-13T12:32:18.023Z,18.00
2023-03-13T12:34:56.725Z,17.90
2023-03-13T12:37:34.189Z,17.70
2023-03-13T12:40:12.187Z,17.80
2023-03-13T12:42:50.783Z,17.80
2023-03-13T12:45:21.681Z,18.00
2023-03-13T12:48:25.078Z,18.00
2023-03-13T12:51:09.408Z,18.00
2023-03-13T12:54:13.878Z,17.90
2023-03-13T12:57:01.921Z,17.90
2023-03-13T12:59:34.209Z,17.90
2023-03-13T13:02:04.205Z,17.90
2023-03-13T13:04:35.147Z,17.80
2023-03-13T13:07:06.818Z,18.00
2023-03-13T13:09:39.685Z,18.00
2023-03-13T13:12:20.882Z,18.20
2023-03-13T13:15:17.131Z,18.00
2023-03-13T13:18:02.490Z,18.10
2023-03-13T13:20:38.709Z,18.30
2023-03-13T13:23:39.256Z,18.40
2023-03-13T13:26:47.701Z,18.50
2023-03-13T13:29:59.237Z,18.40
2023-03-13T13:32:50.948Z,18.30
2023-03-13T13:35:29.429Z,18.20
2023-03-13T13:38:36.977Z,18.20
2023-03-13T13:41:22.268Z,18.20
2023-03-13T13:44:11.706Z,18.00
2023-03-13T13:46:46.177Z,17.80
2023-03-13T13:49:21.369Z,17.60
2023-03-13T13:52:39.292Z,17.70
2023-03-13T13:55:41.201Z,17.70
2023-03-13T13:58:15.140Z,17.80
2023-03-13T14:00:47.562Z,17.80
2023-03-13T14:03:25.042Z,17.80
2023-03-13T14:05:57.775Z,17.80
2023-03-13T14:08:30.545Z,17.70
2023-03-13T14:11:10.987Z,17.60
2023-03-13T14:13:39.757Z,17.60
2023-03-13T14:16:24.534Z,17.50
2023-03-13T14:18:53.954Z,17.50
2023-03-13T14:21:25.181Z,17.50
2023-03-13T14:23:54.482Z,17.40
2023-03-13T14:26:24.806Z,17.40
2023-03-13T14:28:55.773Z,17.30
2023-03-13T14:31:30.224Z,17.20
2023-03-13T14:34:00.237Z,17.10
2023-03-13T14:36:30.726Z,17.00
2023-03-13T14:39:01.029Z,16.90
2023-03-13T14:41:32.248Z,16.90
2023-03-13T14:44:06.462Z,16.90
2023-03-13T14:46:37.109Z,17.00
2023-03-13T14:49:19.688Z,17.00
2023-03-13T14:51:58.994Z,17.00
2023-03-13T14:54:30.942Z,17.00
2023-03-13T14:57:16.945Z,17.00
2023-03-13T14:59:45.726Z,16.90
2023-03-13T15:02:18.553Z,16.90
2023-03-13T15:04:56.002Z,16.90
2023-03-13T15:07:27.594Z,16.80
2023-03-13T15:09:57.406Z,16.80
2023-03-13T15:12:25.944Z,16.70
2023-03-13T15:14:54.770Z,16.70
2023-03-13T15:17:24.587Z,16.70
2023-03-13T15:19:54.925Z,16.70
2023-03-13T15:22:28.680Z,16.60
2023-03-13T15:25:06.050Z,16.50
2023-03-13T15:27:35.668Z,16.50
2023-03-13T15:30:04.917Z,16.50
2023-03-13T15:32:36.811Z,16.50
2023-03-13T15:35:23.073Z,16.40
2023-03-13T15:37:53.097Z,16.30
2023-03-13T15:40:24.142Z,16.30
2023-03-13T15:42:52.788Z,16.20
2023-03-13T15:45:22.179Z,16.20
2023-03-13T15:47:50.728Z,16.30
2023-03-13T15:50:22.391Z,16.20
2023-03-13T15:52:52.292Z,16.10
2023-03-13T15:55:20.779Z,16.10
2023-03-13T15:57:51.340Z,16.00
2023-03-13T16:00:22.070Z,15.90
2023-03-13T16:02:50.938Z,15.90
2023-03-13T16:05:19.806Z,15.80
2023-03-13T16:07:48.405Z,15.80
2023-03-13T16:10:25.132Z,15.70
2023-03-13T16:12:54.199Z,15.70
2023-03-13T16:15:22.865Z,15.70
2023-03-13T16:17:51.728Z,15.50
2023-03-13T16:20:23.618Z,15.50
2023-03-13T16:22:53.694Z,15.50
2023-03-13T16:25:24.337Z,15.50
2023-03-13T16:27:53.503Z,15.40
2023-03-13T16:30:25.156Z,15.40
2023-03-13T16:32:53.752Z,15.40
2023-03-13T16:35:22.990Z,15.30
2023-03-13T16:37:52.016Z,15.20
2023-03-13T16:40:25.010Z,15.20
2023-03-13T16:42:53.625Z,15.20
2023-03-13T16:45:22.316Z,15.10
2023-03-13T16:47:51.110Z,15.00
2023-03-13T16:50:24.297Z,14.90
2023-03-13T16:52:53.838Z,14.90
2023-03-13T16:55:28.301Z,14.80
2023-03-13T16:57:57.240Z,14.70
2023-03-13T17:00:27.963Z,14.70
2023-03-13T17:02:57.590Z,14.60
2023-03-13T17:05:27.564Z,14.50
2023-03-13T17:07:56.124Z,14.60
2023-03-13T17:10:28.444Z,14.50
2023-03-13T17:12:57.217Z,14.30
2023-03-13T17:15:27.071Z,14.20
2023-03-13T17:17:56.307Z,14.10
2023-03-13T17:20:26.975Z,14.10
2023-03-13T17:22:56.572Z,13.90
2023-03-13T17:25:26.546Z,13.90
2023-03-13T17:27:55.522Z,13.80
2023-03-13T17:30:26.582Z,13.70
2023-03-13T17:32:55.176Z,13.60
2023-03-13T17:35:25.199Z,13.50
2023-03-13T17:37:53.783Z,13.50
2023-03-13T17:40:23.912Z,13.40
2023-03-13T17:42:53.963Z,13.30
2023-03-13T17:45:22.596Z,13.20
2023-03-13T17:47:51.090Z,13.10
2023-03-13T17:50:21.252Z,13.00
2023-03-13T17:52:49.885Z,13.00
2023-03-13T17:55:18.478Z,12.90
2023-03-13T17:57:48.396Z,13.00
2023-03-13T18:00:28.948Z,12.80
2023-03-13T18:02:57.484Z,12.70
2023-03-13T18:05:26.132Z,12.70
2023-03-13T18:07:56.858Z,12.50
2023-03-13T18:10:27.050Z,12.50
2023-03-13T18:12:56.007Z,12.40
2023-03-13T18:15:27.528Z,12.30
2023-03-13T18:17:56.001Z,12.20
2023-03-13T18:20:26.319Z,12.20
2023-03-13T18:22:59.248Z,12.10
2023-03-13T18:25:28.945Z,12.10
2023-03-13T18:27:57.645Z,12.00
2023-03-13T18:30:28.911Z,12.00
2023-03-13T18:32:57.476Z,12.00
2023-03-13T18:35:26.208Z,11.90
2023-03-13T18:37:54.671Z,11.80
2023-03-13T18:40:25.923Z,11.80
2023-03-13T18:42:54.429Z,11.70
2023-03-13T18:45:25.087Z,11.70
2023-03-13T18:47:55.097Z,11.60
2023-03-13T18:50:26.479Z,11.60
2023-03-13T18:52:55.844Z,11.60
2023-03-13T18:55:25.017Z,11.50
2023-03-13T18:57:53.882Z,11.40
2023-03-13T19:00:26.480Z,11.40
2023-03-13T19:02:56.410Z,11.30
2023-03-13T19:05:24.991Z,11.30
2023-03-13T19:07:53.742Z,11.30
2023-03-13T19:10:25.105Z,11.30
2023-03-13T19:12:55.263Z,11.20
2023-03-13T19:15:26.851Z,11.20
2023-03-13T19:17:57.047Z,11.20
2023-03-13T19:20:25.602Z,11.20
2023-03-13T19:22:56.232Z,11.20
2023-03-13T19:25:25.096Z,11.20
2023-03-13T19:27:53.578Z,11.20
2023-03-13T19:30:24.497Z,11.10
2023-03-13T19:32:53.255Z,11.10
2023-03-13T19:35:23.321Z,11.10
2023-03-13T19:37:51.925Z,11.00
2023-03-13T19:40:22.810Z,11.00
2023-03-13T19:42:51.326Z,11.00
2023-03-13T19:45:21.755Z,10.90
2023-03-13T19:47:50.362Z,10.90
2023-03-13T19:50:20.934Z,10.80
2023-03-13T19:52:51.023Z,10.80
2023-03-13T19:55:19.672Z,10.70
2023-03-13T19:57:48.130Z,10.60
2023-03-13T20:00:21.307Z,10.60
2023-03-13T20:02:49.905Z,10.50
2023-03-13T20:05:18.794Z,10.50
2023-03-13T20:07:48.205Z,10.40
2023-03-13T20:10:18.076Z,10.40
2023-03-13T20:12:46.612Z,10.30
2023-03-13T20:15:15.127Z,10.30
2023-03-13T20:17:43.587Z,10.20
2023-03-13T20:20:13.713Z,10.10
2023-03-13T20:22:42.299Z,10.10
2023-03-13T20:25:11.640Z,10.00
2023-03-13T20:27:41.437Z,10.00
2023-03-13T20:30:11.314Z,9.90
2023-03-13T20:32:52.938Z,9.90
2023-03-13T20:35:28.845Z,9.80
2023-03-13T20:37:59.631Z,9.80
2023-03-13T20:40:28.171Z,9.80
2023-03-13T20:42:59.479Z,9.80
2023-03-13T20:45:28.700Z,9.80
2023-03-13T20:47:57.488Z,9.70
2023-03-13T20:50:26.083Z,9.70
2023-03-13T20:52:55.637Z,9.70
2023-03-13T20:55:24.220Z,9.70
2023-03-13T20:57:52.673Z,9.70
2023-03-13T21:00:23.332Z,9.80
2023-03-13T21:02:53.726Z,9.80
2023-03-13T21:05:22.209Z,9.90
2023-03-13T21:07:50.674Z,10.10
2023-03-13T21:10:19.386Z,10.10
2023-03-13T21:12:47.867Z,10.10
2023-03-13T21:15:16.363Z,10.20
2023-03-13T21:17:46.267Z,10.10
2023-03-13T21:20:15.368Z,10.20
2023-03-13T21:22:44.965Z,10.30
2023-03-13T21:25:13.770Z,10.30
2023-03-13T21:27:43.784Z,10.30
2023-03-13T21:30:14.950Z,10.40
2023-03-13T21:32:43.449Z,10.40
2023-03-13T21:35:13.887Z,10.50
2023-03-13T21:37:42.812Z,10.50
2023-03-13T21:40:12.836Z,10.60
2023-03-13T21:42:41.590Z,10.70
2023-03-13T21:45:11.750Z,10.80
2023-03-13T21:47:40.406Z,10.90
2023-03-13T21:50:10.998Z,10.90
2023-03-13T21:52:42.277Z,11.00
2023-03-13T21:55:13.249Z,11.00
2023-03-13T21:57:42.050Z,11.10
2023-03-13T22:00:14.005Z,11.10
2023-03-13T22:02:43.255Z,11.10
2023-03-13T22:05:12.452Z,11.20
2023-03-13T22:07:42.428Z,11.20
2023-03-13T22:10:12.069Z,11.20
2023-03-13T22:12:40.585Z,11.30
2023-03-13T22:15:10.484Z,11.40
2023-03-13T22:17:39.062Z,11.30
2023-03-13T22:20:09.953Z,11.40
2023-03-13T22:22:38.559Z,11.40
2023-03-13T22:25:09.342Z,11.40
2023-03-13T22:27:37.883Z,11.40
2023-03-13T22:30:07.712Z,11.40
2023-03-13T22:32:36.239Z,11.40
2023-03-13T22:35:05.206Z,11.40
2023-03-13T22:37:33.649Z,11.40
2023-03-13T22:40:02.084Z,11.30
2023-03-13T22:42:31.926Z,11.30
2023-03-13T22:45:00.361Z,11.40
2023-03-13T22:47:28.868Z,11.40
2023-03-13T22:49:57.354Z,11.40
2023-03-13T22:52:30.530Z,11.40
2023-03-13T22:54:59.242Z,11.50
2023-03-13T22:57:29.006Z,11.50
2023-03-13T23:00:00.227Z,11.70
2023-03-13T23:02:29.308Z,11.60
2023-03-13T23:05:00.295Z,11.70
2023-03-13T23:07:30.522Z,11.70
2023-03-13T23:09:59.680Z,11.80
2023-03-13T23:12:30.671Z,11.70
2023-03-13T23:15:02.001Z,11.70
2023-03-13T23:17:32.927Z,11.70
2023-03-13T23:20:02.061Z,11.70
2023-03-13T23:22:32.878Z,11.70
2023-03-13T23:25:01.750Z,11.70
2023-03-13T23:27:30.214Z,11.70
2023-03-13T23:30:04.079Z,11.70
2023-03-13T23:32:36.017Z,11.80
2023-03-13T23:35:04.900Z,11.80
2023-03-13T23:37:34.023Z,11.80
2023-03-13T23:40:02.938Z,11.90
2023-03-13T23:42:31.797Z,11.90
2023-03-13T23:45:02.347Z,12.20
2023-03-13T23:47:30.985Z,12.00
2023-03-13T23:49:59.484Z,12.00
2023-03-13T23:52:28.025Z,11.90
2023-03-13T23:54:56.495Z,11.90
2023-03-13T23:57:24.941Z,11.80
2023-03-13T23:59:53.361Z,11.70
